Weston, Connecticut
Current Conditions -  °F | °C
As of 11:53 AM on Tuesday 27 Jan 2015 (Local Time) from KDXR Reporting Station
Light Snow Light Snow  
Wind Chill:   Ceiling: 2700
Heat Index: 18°   Visibility: 2.5mi
Dew Point:   Wind: 13mph
Humidity: 68%   Direction: 320°NW
Pressure: 29.66"   Gusts: 21mph
Location:  41.2°N, 73.38°W
Report Text: KDXR 271653Z 32011G18KT 2 1/2SM -SN BKN027 OVC034 M08/M13 A2966 RMK AO2 SLP049 P0000 T10781128 $
Loading
Personal Weather Stations






























Interactive Weather Map New forecast layout! Learn more

10-Day Weather Forecast

Advertisements
Track Severe Weather on mobile